sensor_id;sensor_type;location;lat;lon;timestamp;P1;durP1;ratioP1;P2;durP2;ratioP2
20298;SDS011;10308;42.688;23.256;2023-10-13T00:01:58;8.55;;;6.30;;
20298;SDS011;10308;42.688;23.256;2023-10-13T00:04:26;7.00;;;6.30;;
20298;SDS011;10308;42.688;23.256;2023-10-13T00:06:55;6.95;;;5.97;;
20298;SDS011;10308;42.688;23.256;2023-10-13T00:09:22;8.75;;;6.10;;
20298;SDS011;10308;42.688;23.256;2023-10-13T00:11:54;7.68;;;6.55;;
20298;SDS011;10308;42.688;23.256;2023-10-13T00:14:21;6.43;;;5.63;;
20298;SDS011;10308;42.688;23.256;2023-10-13T00:16:57;6.72;;;6.07;;
20298;SDS011;10308;42.688;23.256;2023-10-13T00:19:30;6.28;;;5.68;;
20298;SDS011;10308;42.688;23.256;2023-10-13T00:22:13;8.45;;;6.18;;
20298;SDS011;10308;42.688;23.256;2023-10-13T00:24:42;7.25;;;6.45;;
20298;SDS011;10308;42.688;23.256;2023-10-13T00:27:16;7.53;;;6.07;;
20298;SDS011;10308;42.688;23.256;2023-10-13T00:30:06;6.65;;;5.93;;
20298;SDS011;10308;42.688;23.256;2023-10-13T00:32:53;7.18;;;6.47;;
20298;SDS011;10308;42.688;23.256;2023-10-13T00:35:20;7.22;;;6.15;;
20298;SDS011;10308;42.688;23.256;2023-10-13T00:37:55;7.07;;;6.38;;
20298;SDS011;10308;42.688;23.256;2023-10-13T00:40:23;7.18;;;6.47;;
20298;SDS011;10308;42.688;23.256;2023-10-13T00:43:21;6.97;;;6.35;;
20298;SDS011;10308;42.688;23.256;2023-10-13T00:46:06;7.45;;;6.22;;
20298;SDS011;10308;42.688;23.256;2023-10-13T00:48:35;6.70;;;5.78;;
20298;SDS011;10308;42.688;23.256;2023-10-13T00:51:17;6.97;;;5.00;;
20298;SDS011;10308;42.688;23.256;2023-10-13T00:54:01;10.05;;;5.75;;
20298;SDS011;10308;42.688;23.256;2023-10-13T00:56:32;6.55;;;5.95;;
20298;SDS011;10308;42.688;23.256;2023-10-13T00:59:08;6.75;;;6.05;;
20298;SDS011;10308;42.688;23.256;2023-10-13T01:01:35;6.72;;;6.03;;
20298;SDS011;10308;42.688;23.256;2023-10-13T01:04:04;6.38;;;5.78;;
20298;SDS011;10308;42.688;23.256;2023-10-13T01:06:33;7.90;;;5.85;;
20298;SDS011;10308;42.688;23.256;2023-10-13T01:09:05;7.22;;;6.40;;
20298;SDS011;10308;42.688;23.256;2023-10-13T01:12:02;9.18;;;5.90;;
20298;SDS011;10308;42.688;23.256;2023-10-13T01:14:36;6.38;;;5.70;;
20298;SDS011;10308;42.688;23.256;2023-10-13T01:17:02;7.80;;;5.88;;
20298;SDS011;10308;42.688;23.256;2023-10-13T01:19:30;7.65;;;6.03;;
20298;SDS011;10308;42.688;23.256;2023-10-13T01:22:04;6.40;;;5.80;;
20298;SDS011;10308;42.688;23.256;2023-10-13T01:24:35;8.00;;;6.28;;
20298;SDS011;10308;42.688;23.256;2023-10-13T01:27:01;6.68;;;5.93;;
20298;SDS011;10308;42.688;23.256;2023-10-13T01:29:44;6.53;;;5.93;;
20298;SDS011;10308;42.688;23.256;2023-10-13T01:32:13;8.98;;;6.40;;
20298;SDS011;10308;42.688;23.256;2023-10-13T01:34:41;8.52;;;7.63;;
20298;SDS011;10308;42.688;23.256;2023-10-13T01:37:11;6.85;;;6.22;;
20298;SDS011;10308;42.688;23.256;2023-10-13T01:39:43;8.27;;;6.57;;
20298;SDS011;10308;42.688;23.256;2023-10-13T01:42:12;6.90;;;6.30;;
20298;SDS011;10308;42.688;23.256;2023-10-13T01:44:46;7.32;;;6.18;;
20298;SDS011;10308;42.688;23.256;2023-10-13T01:47:13;7.97;;;6.22;;
20298;SDS011;10308;42.688;23.256;2023-10-13T01:49:42;6.90;;;6.10;;
20298;SDS011;10308;42.688;23.256;2023-10-13T01:52:12;6.60;;;6.00;;
20298;SDS011;10308;42.688;23.256;2023-10-13T01:54:44;7.18;;;6.00;;
20298;SDS011;10308;42.688;23.256;2023-10-13T01:57:17;7.28;;;6.57;;
20298;SDS011;10308;42.688;23.256;2023-10-13T01:59:44;7.10;;;6.40;;
20298;SDS011;10308;42.688;23.256;2023-10-13T02:02:13;7.75;;;6.00;;
20298;SDS011;10308;42.688;23.256;2023-10-13T02:04:41;6.80;;;6.10;;
20298;SDS011;10308;42.688;23.256;2023-10-13T02:07:14;9.10;;;6.07;;
20298;SDS011;10308;42.688;23.256;2023-10-13T02:09:43;7.10;;;6.13;;
20298;SDS011;10308;42.688;23.256;2023-10-13T02:12:10;6.45;;;5.82;;
20298;SDS011;10308;42.688;23.256;2023-10-13T02:14:37;8.52;;;6.32;;
20298;SDS011;10308;42.688;23.256;2023-10-13T02:17:04;7.38;;;6.20;;
20298;SDS011;10308;42.688;23.256;2023-10-13T02:19:38;6.72;;;5.95;;
20298;SDS011;10308;42.688;23.256;2023-10-13T02:22:10;7.65;;;6.22;;
20298;SDS011;10308;42.688;23.256;2023-10-13T02:24:52;6.93;;;6.18;;
20298;SDS011;10308;42.688;23.256;2023-10-13T02:27:18;8.07;;;6.43;;
20298;SDS011;10308;42.688;23.256;2023-10-13T02:29:49;7.40;;;6.57;;
20298;SDS011;10308;42.688;23.256;2023-10-13T02:32:15;7.80;;;6.45;;
20298;SDS011;10308;42.688;23.256;2023-10-13T02:34:46;8.52;;;7.43;;
20298;SDS011;10308;42.688;23.256;2023-10-13T02:37:12;7.93;;;6.50;;
20298;SDS011;10308;42.688;23.256;2023-10-13T02:39:41;9.73;;;6.75;;
20298;SDS011;10308;42.688;23.256;2023-10-13T02:42:08;9.38;;;6.35;;
20298;SDS011;10308;42.688;23.256;2023-10-13T02:44:50;7.68;;;6.47;;
20298;SDS011;10308;42.688;23.256;2023-10-13T02:47:16;9.38;;;7.05;;
20298;SDS011;10308;42.688;23.256;2023-10-13T02:49:46;8.60;;;6.45;;
20298;SDS011;10308;42.688;23.256;2023-10-13T02:52:13;8.57;;;7.65;;
20298;SDS011;10308;42.688;23.256;2023-10-13T02:54:41;9.00;;;6.70;;
20298;SDS011;10308;42.688;23.256;2023-10-13T02:57:16;7.75;;;6.95;;
20298;SDS011;10308;42.688;23.256;2023-10-13T02:59:44;7.57;;;6.78;;
20298;SDS011;10308;42.688;23.256;2023-10-13T03:02:12;8.10;;;6.45;;
20298;SDS011;10308;42.688;23.256;2023-10-13T03:04:51;11.38;;;7.13;;
20298;SDS011;10308;42.688;23.256;2023-10-13T03:07:24;7.80;;;7.00;;
20298;SDS011;10308;42.688;23.256;2023-10-13T03:09:55;9.77;;;7.28;;
20298;SDS011;10308;42.688;23.256;2023-10-13T03:12:28;9.75;;;7.03;;
20298;SDS011;10308;42.688;23.256;2023-10-13T03:15:00;9.95;;;7.07;;
20298;SDS011;10308;42.688;23.256;2023-10-13T03:17:38;7.75;;;7.00;;
20298;SDS011;10308;42.688;23.256;2023-10-13T03:20:10;9.85;;;7.28;;
20298;SDS011;10308;42.688;23.256;2023-10-13T03:22:39;10.18;;;7.07;;
20298;SDS011;10308;42.688;23.256;2023-10-13T03:25:12;9.52;;;7.65;;
20298;SDS011;10308;42.688;23.256;2023-10-13T03:27:45;9.32;;;7.30;;
20298;SDS011;10308;42.688;23.256;2023-10-13T03:30:27;10.48;;;7.43;;
20298;SDS011;10308;42.688;23.256;2023-10-13T03:33:00;10.57;;;7.13;;
20298;SDS011;10308;42.688;23.256;2023-10-13T03:35:34;9.05;;;6.97;;
20298;SDS011;10308;42.688;23.256;2023-10-13T03:38:17;8.57;;;7.68;;
20298;SDS011;10308;42.688;23.256;2023-10-13T03:40:46;9.82;;;7.78;;
20298;SDS011;10308;42.688;23.256;2023-10-13T03:43:25;10.18;;;7.45;;
20298;SDS011;10308;42.688;23.256;2023-10-13T03:45:56;10.00;;;7.35;;
20298;SDS011;10308;42.688;23.256;2023-10-13T03:48:33;8.55;;;6.90;;
20298;SDS011;10308;42.688;23.256;2023-10-13T03:51:19;11.57;;;7.93;;
20298;SDS011;10308;42.688;23.256;2023-10-13T03:53:46;11.38;;;7.47;;
20298;SDS011;10308;42.688;23.256;2023-10-13T03:56:24;10.75;;;7.93;;
20298;SDS011;10308;42.688;23.256;2023-10-13T03:58:54;10.60;;;7.60;;
20298;SDS011;10308;42.688;23.256;2023-10-13T04:01:24;9.93;;;7.45;;
20298;SDS011;10308;42.688;23.256;2023-10-13T04:04:09;9.70;;;8.07;;
20298;SDS011;10308;42.688;23.256;2023-10-13T04:06:38;12.63;;;8.13;;
20298;SDS011;10308;42.688;23.256;2023-10-13T04:09:23;9.68;;;7.45;;
20298;SDS011;10308;42.688;23.256;2023-10-13T04:12:09;14.20;;;8.45;;
20298;SDS011;10308;42.688;23.256;2023-10-13T04:15:03;11.05;;;8.65;;
20298;SDS011;10308;42.688;23.256;2023-10-13T04:17:50;12.73;;;8.80;;
20298;SDS011;10308;42.688;23.256;2023-10-13T04:20:17;11.32;;;8.65;;
20298;SDS011;10308;42.688;23.256;2023-10-13T04:23:21;11.80;;;9.13;;
20298;SDS011;10308;42.688;23.256;2023-10-13T04:25:51;12.95;;;8.32;;
20298;SDS011;10308;42.688;23.256;2023-10-13T04:28:35;9.95;;;8.00;;
20298;SDS011;10308;42.688;23.256;2023-10-13T04:31:25;16.13;;;9.10;;
20298;SDS011;10308;42.688;23.256;2023-10-13T04:34:21;18.13;;;10.32;;
20298;SDS011;10308;42.688;23.256;2023-10-13T04:36:58;14.40;;;10.02;;
20298;SDS011;10308;42.688;23.256;2023-10-13T04:39:49;13.70;;;9.50;;
20298;SDS011;10308;42.688;23.256;2023-10-13T04:42:24;16.20;;;9.65;;
20298;SDS011;10308;42.688;23.256;2023-10-13T04:45:06;13.82;;;10.82;;
20298;SDS011;10308;42.688;23.256;2023-10-13T04:48:04;12.40;;;9.48;;
20298;SDS011;10308;42.688;23.256;2023-10-13T04:51:01;16.08;;;10.13;;
20298;SDS011;10308;42.688;23.256;2023-10-13T04:53:47;13.38;;;9.75;;
20298;SDS011;10308;42.688;23.256;2023-10-13T04:56:38;10.93;;;9.63;;
20298;SDS011;10308;42.688;23.256;2023-10-13T04:59:35;15.95;;;10.35;;
20298;SDS011;10308;42.688;23.256;2023-10-13T05:02:26;13.32;;;9.77;;
20298;SDS011;10308;42.688;23.256;2023-10-13T05:05:24;13.38;;;9.98;;
20298;SDS011;10308;42.688;23.256;2023-10-13T05:08:13;16.75;;;10.25;;
20298;SDS011;10308;42.688;23.256;2023-10-13T05:11:03;15.38;;;11.00;;
20298;SDS011;10308;42.688;23.256;2023-10-13T05:13:50;20.83;;;10.75;;
20298;SDS011;10308;42.688;23.256;2023-10-13T05:16:34;20.52;;;11.13;;
20298;SDS011;10308;42.688;23.256;2023-10-13T05:19:22;21.52;;;11.88;;
20298;SDS011;10308;42.688;23.256;2023-10-13T05:22:09;19.35;;;11.63;;
20298;SDS011;10308;42.688;23.256;2023-10-13T05:25:01;20.48;;;12.40;;
20298;SDS011;10308;42.688;23.256;2023-10-13T05:27:47;21.77;;;11.73;;
20298;SDS011;10308;42.688;23.256;2023-10-13T05:30:33;17.90;;;10.55;;
20298;SDS011;10308;42.688;23.256;2023-10-13T05:33:18;14.35;;;10.20;;
20298;SDS011;10308;42.688;23.256;2023-10-13T05:36:10;11.00;;;9.70;;
20298;SDS011;10308;42.688;23.256;2023-10-13T05:38:57;9.35;;;8.45;;
20298;SDS011;10308;42.688;23.256;2023-10-13T05:41:48;12.88;;;9.38;;
20298;SDS011;10308;42.688;23.256;2023-10-13T05:44:33;11.95;;;9.48;;
20298;SDS011;10308;42.688;23.256;2023-10-13T05:47:23;14.18;;;9.35;;
20298;SDS011;10308;42.688;23.256;2023-10-13T05:50:04;13.18;;;9.80;;
20298;SDS011;10308;42.688;23.256;2023-10-13T05:52:55;13.77;;;9.65;;
20298;SDS011;10308;42.688;23.256;2023-10-13T05:55:41;12.70;;;10.13;;
20298;SDS011;10308;42.688;23.256;2023-10-13T05:58:32;14.02;;;10.77;;
20298;SDS011;10308;42.688;23.256;2023-10-13T06:01:17;11.10;;;9.85;;
20298;SDS011;10308;42.688;23.256;2023-10-13T06:04:03;14.75;;;9.73;;
20298;SDS011;10308;42.688;23.256;2023-10-13T06:06:48;12.40;;;9.80;;
20298;SDS011;10308;42.688;23.256;2023-10-13T06:09:35;11.27;;;9.40;;
20298;SDS011;10308;42.688;23.256;2023-10-13T06:12:20;11.45;;;9.30;;
20298;SDS011;10308;42.688;23.256;2023-10-13T06:15:12;10.63;;;8.50;;
20298;SDS011;10308;42.688;23.256;2023-10-13T06:17:57;9.18;;;8.25;;
20298;SDS011;10308;42.688;23.256;2023-10-13T06:20:43;10.80;;;8.73;;
20298;SDS011;10308;42.688;23.256;2023-10-13T06:23:29;12.80;;;9.73;;
20298;SDS011;10308;42.688;23.256;2023-10-13T06:26:16;16.98;;;10.25;;
20298;SDS011;10308;42.688;23.256;2023-10-13T06:29:01;10.40;;;9.18;;
20298;SDS011;10308;42.688;23.256;2023-10-13T06:31:39;12.60;;;10.55;;
20298;SDS011;10308;42.688;23.256;2023-10-13T06:34:12;17.80;;;12.00;;
20298;SDS011;10308;42.688;23.256;2023-10-13T06:36:42;16.77;;;14.68;;
20298;SDS011;10308;42.688;23.256;2023-10-13T06:39:14;16.52;;;14.75;;
20298;SDS011;10308;42.688;23.256;2023-10-13T06:42:12;19.83;;;14.23;;
20298;SDS011;10308;42.688;23.256;2023-10-13T06:44:41;17.38;;;14.13;;
20298;SDS011;10308;42.688;23.256;2023-10-13T06:47:17;15.02;;;13.40;;
20298;SDS011;10308;42.688;23.256;2023-10-13T06:49:47;16.67;;;13.43;;
20298;SDS011;10308;42.688;23.256;2023-10-13T06:52:17;16.13;;;13.15;;
20298;SDS011;10308;42.688;23.256;2023-10-13T06:54:44;16.15;;;13.32;;
20298;SDS011;10308;42.688;23.256;2023-10-13T06:57:14;16.40;;;12.32;;
20298;SDS011;10308;42.688;23.256;2023-10-13T06:59:46;16.02;;;13.10;;
20298;SDS011;10308;42.688;23.256;2023-10-13T07:02:24;18.90;;;13.18;;
20298;SDS011;10308;42.688;23.256;2023-10-13T07:04:59;20.65;;;13.57;;
20298;SDS011;10308;42.688;23.256;2023-10-13T07:07:34;19.13;;;14.63;;
20298;SDS011;10308;42.688;23.256;2023-10-13T07:10:07;18.60;;;14.32;;
20298;SDS011;10308;42.688;23.256;2023-10-13T07:12:38;19.15;;;13.45;;
20298;SDS011;10308;42.688;23.256;2023-10-13T07:15:09;18.70;;;13.27;;
20298;SDS011;10308;42.688;23.256;2023-10-13T07:17:52;16.98;;;13.40;;
20298;SDS011;10308;42.688;23.256;2023-10-13T07:20:24;18.52;;;14.13;;
20298;SDS011;10308;42.688;23.256;2023-10-13T07:23:01;18.30;;;14.43;;
20298;SDS011;10308;42.688;23.256;2023-10-13T07:25:31;21.70;;;14.68;;
20298;SDS011;10308;42.688;23.256;2023-10-13T07:28:04;19.50;;;15.00;;
20298;SDS011;10308;42.688;23.256;2023-10-13T07:30:35;19.02;;;15.77;;
20298;SDS011;10308;42.688;23.256;2023-10-13T07:33:22;20.85;;;14.90;;
20298;SDS011;10308;42.688;23.256;2023-10-13T07:35:59;20.25;;;15.30;;
20298;SDS011;10308;42.688;23.256;2023-10-13T07:38:37;19.00;;;15.40;;
20298;SDS011;10308;42.688;23.256;2023-10-13T07:41:08;20.70;;;15.93;;
20298;SDS011;10308;42.688;23.256;2023-10-13T07:43:42;18.90;;;15.45;;
20298;SDS011;10308;42.688;23.256;2023-10-13T07:46:10;19.65;;;15.55;;
20298;SDS011;10308;42.688;23.256;2023-10-13T07:48:43;23.80;;;16.13;;
20298;SDS011;10308;42.688;23.256;2023-10-13T07:51:10;21.20;;;15.52;;
20298;SDS011;10308;42.688;23.256;2023-10-13T07:53:41;18.33;;;15.52;;
20298;SDS011;10308;42.688;23.256;2023-10-13T07:56:09;16.23;;;14.48;;
20298;SDS011;10308;42.688;23.256;2023-10-13T07:58:38;18.58;;;14.68;;
20298;SDS011;10308;42.688;23.256;2023-10-13T08:01:17;19.20;;;14.93;;
20298;SDS011;10308;42.688;23.256;2023-10-13T08:03:53;19.42;;;13.75;;
20298;SDS011;10308;42.688;23.256;2023-10-13T08:06:35;18.67;;;14.38;;
20298;SDS011;10308;42.688;23.256;2023-10-13T08:09:03;19.77;;;14.77;;
20298;SDS011;10308;42.688;23.256;2023-10-13T08:11:55;19.35;;;14.95;;
20298;SDS011;10308;42.688;23.256;2023-10-13T08:14:23;17.83;;;14.95;;
20298;SDS011;10308;42.688;23.256;2023-10-13T08:16:55;17.08;;;13.77;;
20298;SDS011;10308;42.688;23.256;2023-10-13T08:19:30;18.42;;;14.95;;
20298;SDS011;10308;42.688;23.256;2023-10-13T08:22:05;16.40;;;14.25;;
20298;SDS011;10308;42.688;23.256;2023-10-13T08:24:51;15.10;;;13.57;;
20298;SDS011;10308;42.688;23.256;2023-10-13T08:27:37;20.27;;;14.63;;
20298;SDS011;10308;42.688;23.256;2023-10-13T08:30:16;21.20;;;14.77;;
20298;SDS011;10308;42.688;23.256;2023-10-13T08:32:55;15.65;;;13.10;;
20298;SDS011;10308;42.688;23.256;2023-10-13T08:35:45;18.02;;;13.88;;
20298;SDS011;10308;42.688;23.256;2023-10-13T08:38:44;17.88;;;13.13;;
20298;SDS011;10308;42.688;23.256;2023-10-13T08:41:18;20.23;;;13.43;;
20298;SDS011;10308;42.688;23.256;2023-10-13T08:44:04;17.65;;;13.32;;
20298;SDS011;10308;42.688;23.256;2023-10-13T08:46:36;18.27;;;13.15;;
20298;SDS011;10308;42.688;23.256;2023-10-13T08:49:36;21.05;;;13.23;;
20298;SDS011;10308;42.688;23.256;2023-10-13T08:52:14;17.20;;;13.57;;
20298;SDS011;10308;42.688;23.256;2023-10-13T08:55:01;17.65;;;12.65;;
20298;SDS011;10308;42.688;23.256;2023-10-13T08:58:06;15.38;;;12.07;;
20298;SDS011;10308;42.688;23.256;2023-10-13T09:00:39;18.83;;;12.15;;
20298;SDS011;10308;42.688;23.256;2023-10-13T09:03:25;19.90;;;12.65;;
20298;SDS011;10308;42.688;23.256;2023-10-13T09:06:03;16.33;;;10.88;;
20298;SDS011;10308;42.688;23.256;2023-10-13T09:08:36;15.68;;;9.93;;
20298;SDS011;10308;42.688;23.256;2023-10-13T09:11:35;16.45;;;9.45;;
20298;SDS011;10308;42.688;23.256;2023-10-13T09:14:37;16.98;;;10.10;;
20298;SDS011;10308;42.688;23.256;2023-10-13T09:17:10;19.20;;;10.65;;
20298;SDS011;10308;42.688;23.256;2023-10-13T09:19:48;14.13;;;8.93;;
20298;SDS011;10308;42.688;23.256;2023-10-13T09:22:22;18.52;;;9.52;;
20298;SDS011;10308;42.688;23.256;2023-10-13T09:25:08;14.95;;;8.35;;
20298;SDS011;10308;42.688;23.256;2023-10-13T09:27:39;17.02;;;8.38;;
20298;SDS011;10308;42.688;23.256;2023-10-13T09:30:06;15.93;;;9.23;;
20298;SDS011;10308;42.688;23.256;2023-10-13T09:32:44;12.93;;;8.57;;
20298;SDS011;10308;42.688;23.256;2023-10-13T09:35:16;14.93;;;7.97;;
20298;SDS011;10308;42.688;23.256;2023-10-13T09:37:44;9.70;;;8.00;;
20298;SDS011;10308;42.688;23.256;2023-10-13T09:40:16;12.23;;;8.70;;
20298;SDS011;10308;42.688;23.256;2023-10-13T09:43:01;12.73;;;8.40;;
20298;SDS011;10308;42.688;23.256;2023-10-13T09:45:34;15.20;;;8.63;;
20298;SDS011;10308;42.688;23.256;2023-10-13T09:48:08;12.02;;;7.40;;
20298;SDS011;10308;42.688;23.256;2023-10-13T09:50:43;10.10;;;6.85;;
20298;SDS011;10308;42.688;23.256;2023-10-13T09:53:11;11.25;;;7.32;;
20298;SDS011;10308;42.688;23.256;2023-10-13T09:55:47;8.93;;;6.28;;
20298;SDS011;10308;42.688;23.256;2023-10-13T09:58:16;10.30;;;6.45;;
20298;SDS011;10308;42.688;23.256;2023-10-13T10:00:46;9.80;;;6.65;;
20298;SDS011;10308;42.688;23.256;2023-10-13T10:03:43;11.93;;;6.45;;
20298;SDS011;10308;42.688;23.256;2023-10-13T10:06:21;10.85;;;6.38;;
20298;SDS011;10308;42.688;23.256;2023-10-13T10:09:03;10.52;;;5.70;;
20298;SDS011;10308;42.688;23.256;2023-10-13T10:14:51;12.00;;;6.20;;
20298;SDS011;10308;42.688;23.256;2023-10-13T10:17:28;8.43;;;6.00;;
20298;SDS011;10308;42.688;23.256;2023-10-13T10:19:59;9.20;;;6.15;;
20298;SDS011;10308;42.688;23.256;2023-10-13T10:22:32;7.85;;;6.70;;
20298;SDS011;10308;42.688;23.256;2023-10-13T10:25:01;8.98;;;6.22;;
20298;SDS011;10308;42.688;23.256;2023-10-13T10:27:33;10.80;;;6.80;;
20298;SDS011;10308;42.688;23.256;2023-10-13T10:30:05;7.20;;;5.70;;
20298;SDS011;10308;42.688;23.256;2023-10-13T10:32:40;9.70;;;6.07;;
20298;SDS011;10308;42.688;23.256;2023-10-13T10:35:13;6.57;;;5.72;;
20298;SDS011;10308;42.688;23.256;2023-10-13T10:37:49;7.57;;;5.93;;
20298;SDS011;10308;42.688;23.256;2023-10-13T10:40:16;8.55;;;5.70;;
20298;SDS011;10308;42.688;23.256;2023-10-13T10:43:00;6.70;;;5.63;;
20298;SDS011;10308;42.688;23.256;2023-10-13T10:45:29;9.05;;;5.43;;
20298;SDS011;10308;42.688;23.256;2023-10-13T10:48:02;8.88;;;5.63;;
20298;SDS011;10308;42.688;23.256;2023-10-13T10:50:44;11.30;;;5.75;;
20298;SDS011;10308;42.688;23.256;2023-10-13T10:53:13;10.57;;;5.88;;
20298;SDS011;10308;42.688;23.256;2023-10-13T10:55:40;8.13;;;5.63;;
20298;SDS011;10308;42.688;23.256;2023-10-13T10:58:10;10.05;;;5.20;;
20298;SDS011;10308;42.688;23.256;2023-10-13T11:03:56;5.63;;;4.55;;
20298;SDS011;10308;42.688;23.256;2023-10-13T11:06:34;8.85;;;4.65;;
20298;SDS011;10308;42.688;23.256;2023-10-13T11:09:08;6.03;;;4.82;;
20298;SDS011;10308;42.688;23.256;2023-10-13T11:12:08;6.07;;;4.50;;
20298;SDS011;10308;42.688;23.256;2023-10-13T11:14:42;5.40;;;4.25;;
20298;SDS011;10308;42.688;23.256;2023-10-13T11:17:22;7.97;;;3.97;;
20298;SDS011;10308;42.688;23.256;2023-10-13T11:19:52;6.95;;;4.03;;
20298;SDS011;10308;42.688;23.256;2023-10-13T11:22:22;5.90;;;3.70;;
20298;SDS011;10308;42.688;23.256;2023-10-13T11:25:04;5.05;;;3.47;;
20298;SDS011;10308;42.688;23.256;2023-10-13T11:27:36;4.65;;;3.92;;
20298;SDS011;10308;42.688;23.256;2023-10-13T11:30:31;6.18;;;3.22;;
20298;SDS011;10308;42.688;23.256;2023-10-13T11:33:21;5.75;;;3.67;;
20298;SDS011;10308;42.688;23.256;2023-10-13T11:35:50;5.47;;;3.30;;
20298;SDS011;10308;42.688;23.256;2023-10-13T11:38:31;5.70;;;3.83;;
20298;SDS011;10308;42.688;23.256;2023-10-13T11:41:10;3.95;;;2.90;;
20298;SDS011;10308;42.688;23.256;2023-10-13T11:43:43;5.70;;;3.40;;
20298;SDS011;10308;42.688;23.256;2023-10-13T11:46:37;5.63;;;3.17;;
20298;SDS011;10308;42.688;23.256;2023-10-13T11:49:39;4.50;;;3.10;;
20298;SDS011;10308;42.688;23.256;2023-10-13T11:52:09;4.30;;;3.65;;
20298;SDS011;10308;42.688;23.256;2023-10-13T11:54:51;5.28;;;3.33;;
20298;SDS011;10308;42.688;23.256;2023-10-13T11:57:22;5.10;;;3.55;;
20298;SDS011;10308;42.688;23.256;2023-10-13T11:59:49;5.03;;;3.78;;
20298;SDS011;10308;42.688;23.256;2023-10-13T12:02:50;4.97;;;3.53;;
20298;SDS011;10308;42.688;23.256;2023-10-13T12:05:42;6.00;;;3.55;;
20298;SDS011;10308;42.688;23.256;2023-10-13T12:08:34;4.93;;;3.20;;
20298;SDS011;10308;42.688;23.256;2023-10-13T12:11:15;5.15;;;3.33;;
20298;SDS011;10308;42.688;23.256;2023-10-13T12:14:06;5.55;;;3.50;;
20298;SDS011;10308;42.688;23.256;2023-10-13T12:16:46;5.38;;;3.28;;
20298;SDS011;10308;42.688;23.256;2023-10-13T12:19:18;6.78;;;3.50;;
20298;SDS011;10308;42.688;23.256;2023-10-13T12:21:52;6.15;;;2.80;;
20298;SDS011;10308;42.688;23.256;2023-10-13T12:24:25;3.40;;;3.00;;
20298;SDS011;10308;42.688;23.256;2023-10-13T12:27:06;5.35;;;3.28;;
20298;SDS011;10308;42.688;23.256;2023-10-13T12:29:51;4.80;;;2.65;;
20298;SDS011;10308;42.688;23.256;2023-10-13T12:32:18;3.65;;;2.67;;
20298;SDS011;10308;42.688;23.256;2023-10-13T12:34:52;6.63;;;3.00;;
20298;SDS011;10308;42.688;23.256;2023-10-13T12:37:54;5.07;;;3.20;;
20298;SDS011;10308;42.688;23.256;2023-10-13T12:40:32;3.78;;;2.83;;
20298;SDS011;10308;42.688;23.256;2023-10-13T12:43:17;6.82;;;2.92;;
20298;SDS011;10308;42.688;23.256;2023-10-13T12:46:04;4.05;;;2.95;;
20298;SDS011;10308;42.688;23.256;2023-10-13T12:48:49;3.55;;;2.92;;
20298;SDS011;10308;42.688;23.256;2023-10-13T12:51:37;4.13;;;2.70;;
20298;SDS011;10308;42.688;23.256;2023-10-13T12:54:23;5.57;;;2.78;;
20298;SDS011;10308;42.688;23.256;2023-10-13T12:57:02;3.92;;;2.80;;
20298;SDS011;10308;42.688;23.256;2023-10-13T12:59:35;4.05;;;2.70;;
20298;SDS011;10308;42.688;23.256;2023-10-13T13:02:08;4.82;;;2.47;;
20298;SDS011;10308;42.688;23.256;2023-10-13T13:04:41;4.88;;;2.72;;
20298;SDS011;10308;42.688;23.256;2023-10-13T13:07:11;4.03;;;2.80;;
20298;SDS011;10308;42.688;23.256;2023-10-13T13:09:44;4.35;;;2.90;;
20298;SDS011;10308;42.688;23.256;2023-10-13T13:12:16;5.25;;;2.67;;
20298;SDS011;10308;42.688;23.256;2023-10-13T13:14:45;3.20;;;2.90;;
20298;SDS011;10308;42.688;23.256;2023-10-13T13:17:22;4.32;;;2.75;;
20298;SDS011;10308;42.688;23.256;2023-10-13T13:19:51;4.72;;;3.53;;
20298;SDS011;10308;42.688;23.256;2023-10-13T13:22:20;5.65;;;3.70;;
20298;SDS011;10308;42.688;23.256;2023-10-13T13:24:53;4.22;;;3.15;;
20298;SDS011;10308;42.688;23.256;2023-10-13T13:27:24;5.57;;;3.20;;
20298;SDS011;10308;42.688;23.256;2023-10-13T13:29:54;4.25;;;3.05;;
20298;SDS011;10308;42.688;23.256;2023-10-13T13:32:26;6.47;;;3.15;;
20298;SDS011;10308;42.688;23.256;2023-10-13T13:34:56;4.57;;;3.22;;
20298;SDS011;10308;42.688;23.256;2023-10-13T13:37:31;3.83;;;3.10;;
20298;SDS011;10308;42.688;23.256;2023-10-13T13:40:08;4.82;;;3.05;;
20298;SDS011;10308;42.688;23.256;2023-10-13T13:42:48;4.50;;;3.22;;
20298;SDS011;10308;42.688;23.256;2023-10-13T13:45:17;4.32;;;2.53;;
20298;SDS011;10308;42.688;23.256;2023-10-13T13:47:48;4.88;;;2.60;;
20298;SDS011;10308;42.688;23.256;2023-10-13T13:50:20;3.70;;;2.55;;
20298;SDS011;10308;42.688;23.256;2023-10-13T13:52:56;4.75;;;3.17;;
20298;SDS011;10308;42.688;23.256;2023-10-13T13:55:33;5.43;;;4.28;;
20298;SDS011;10308;42.688;23.256;2023-10-13T13:58:07;4.10;;;3.13;;
20298;SDS011;10308;42.688;23.256;2023-10-13T14:00:35;5.55;;;3.25;;
20298;SDS011;10308;42.688;23.256;2023-10-13T14:03:04;4.78;;;3.05;;
20298;SDS011;10308;42.688;23.256;2023-10-13T14:05:41;3.75;;;2.90;;
20298;SDS011;10308;42.688;23.256;2023-10-13T14:08:10;4.45;;;2.78;;
20298;SDS011;10308;42.688;23.256;2023-10-13T14:10:46;4.63;;;2.85;;
20298;SDS011;10308;42.688;23.256;2023-10-13T14:13:32;4.68;;;2.90;;
20298;SDS011;10308;42.688;23.256;2023-10-13T14:16:27;5.50;;;3.05;;
20298;SDS011;10308;42.688;23.256;2023-10-13T14:18:56;7.68;;;3.60;;
20298;SDS011;10308;42.688;23.256;2023-10-13T14:21:28;4.13;;;3.17;;
20298;SDS011;10308;42.688;23.256;2023-10-13T14:23:55;6.70;;;3.42;;
20298;SDS011;10308;42.688;23.256;2023-10-13T14:26:27;4.25;;;3.10;;
20298;SDS011;10308;42.688;23.256;2023-10-13T14:28:55;4.75;;;3.35;;
20298;SDS011;10308;42.688;23.256;2023-10-13T14:31:34;4.78;;;3.38;;
20298;SDS011;10308;42.688;23.256;2023-10-13T14:34:05;8.82;;;3.33;;
20298;SDS011;10308;42.688;23.256;2023-10-13T14:36:33;7.80;;;3.30;;
20298;SDS011;10308;42.688;23.256;2023-10-13T14:39:00;5.68;;;3.50;;
20298;SDS011;10308;42.688;23.256;2023-10-13T14:41:29;4.90;;;3.92;;
20298;SDS011;10308;42.688;23.256;2023-10-13T14:43:56;6.47;;;4.00;;
20298;SDS011;10308;42.688;23.256;2023-10-13T14:46:34;7.53;;;4.20;;
20298;SDS011;10308;42.688;23.256;2023-10-13T14:49:04;5.90;;;3.33;;
20298;SDS011;10308;42.688;23.256;2023-10-13T14:51:33;8.10;;;3.78;;
20298;SDS011;10308;42.688;23.256;2023-10-13T14:54:05;5.50;;;3.95;;
20298;SDS011;10308;42.688;23.256;2023-10-13T14:56:35;5.28;;;3.35;;
20298;SDS011;10308;42.688;23.256;2023-10-13T14:59:03;5.15;;;3.90;;
20298;SDS011;10308;42.688;23.256;2023-10-13T15:01:35;6.43;;;4.30;;
20298;SDS011;10308;42.688;23.256;2023-10-13T15:04:02;7.13;;;3.65;;
20298;SDS011;10308;42.688;23.256;2023-10-13T15:06:31;6.22;;;4.18;;
20298;SDS011;10308;42.688;23.256;2023-10-13T15:09:00;6.03;;;3.90;;
20298;SDS011;10308;42.688;23.256;2023-10-13T15:11:30;5.45;;;3.70;;
20298;SDS011;10308;42.688;23.256;2023-10-13T15:14:04;6.80;;;3.97;;
20298;SDS011;10308;42.688;23.256;2023-10-13T15:16:33;7.53;;;3.72;;
20298;SDS011;10308;42.688;23.256;2023-10-13T15:19:07;6.97;;;4.28;;
20298;SDS011;10308;42.688;23.256;2023-10-13T15:21:36;8.35;;;5.05;;
20298;SDS011;10308;42.688;23.256;2023-10-13T15:24:06;9.23;;;5.43;;
20298;SDS011;10308;42.688;23.256;2023-10-13T15:29:15;11.63;;;5.22;;
20298;SDS011;10308;42.688;23.256;2023-10-13T15:31:43;8.40;;;4.75;;